Strona główna
METAR-TAF:

METAR-TAF

Lotnisko :

Port lotniczy Kufra

Kufra, Libia

Szerokość geograficzna: 24-13N, Długość geograficzna: 023-18E, wysokość: 417 m

METAR: brakujący

czas: 09:37 (07:37 UTC)

Prognoza

Raport powstał 20 godziny i 37 minut temu, godzina 11:00 UTC
Prognoza ważna od 05 godzina 12 UTC do 06 godzina 12 UTC
Wiatr 10 kt od północno-północny wschód
Widzialność 10 km lub więcej
Brak chmur poniżej 1500 m i brak chmur cumulonimbus

TAF: HLKF 051100Z 0512/0612 03010KT CAVOK

Obserwacja i prognoza pogody dla ponad 4000 lotnisk (raport METAR i TAF).

Dostępne stacje oznaczono żółtymi i czerwonymi punktami na mapie.

Najedź kursorem aby zobaczyć nazwę stacji.

Kliknij aby zobaczyć obserwacje i prognozy pogody.

Aby zmienić mapę: kliknij na zielony przycisk z czarnym krzyżykiem, aby powiększyć; na zielony przycisk z myślnikiem, aby pomniejszyć; na zielone strzałki, aby przejść do map sąsiednich.


METAR-TAF: